createdAt,value
2022-12-12T00:03:22.591Z,96624.59
2022-12-12T00:07:39.542Z,96623.59
2022-12-12T00:11:56.597Z,96628.75
2022-12-12T00:16:13.852Z,96625.22
2022-12-12T00:20:31.062Z,96615.72
2022-12-12T00:24:47.907Z,96615.63
2022-12-12T00:29:06.066Z,96617.44
2022-12-12T00:33:22.993Z,96618.22
2022-12-12T00:37:40.022Z,96619.88
2022-12-12T00:41:56.916Z,96609.44
2022-12-12T00:46:21.143Z,96610.63
2022-12-12T00:50:38.242Z,96614.09
2022-12-12T00:54:55.382Z,96615.22
2022-12-12T00:59:12.240Z,96616.66
2022-12-12T01:03:29.305Z,96623.00
2022-12-12T01:07:46.230Z,96629.75
2022-12-12T01:12:03.381Z,96624.09
2022-12-12T01:16:21.699Z,96612.84
2022-12-12T01:20:38.844Z,96610.19
2022-12-12T01:24:57.305Z,96604.03
2022-12-12T01:29:14.107Z,96604.47
2022-12-12T01:33:31.161Z,96594.47
2022-12-12T01:37:49.610Z,96605.09
2022-12-12T01:42:14.269Z,96595.50
2022-12-12T01:46:43.864Z,96589.03
2022-12-12T01:51:06.550Z,96580.34
2022-12-12T01:55:24.023Z,96588.09
2022-12-12T01:59:41.351Z,96592.13
2022-12-12T02:04:00.967Z,96585.78
2022-12-12T02:08:21.203Z,96577.28
2022-12-12T02:12:38.360Z,96581.91
2022-12-12T02:17:10.002Z,96582.69
2022-12-12T02:21:34.360Z,96583.69
2022-12-12T02:26:45.122Z,96579.69
2022-12-12T02:31:21.835Z,96577.56
2022-12-12T02:36:10.868Z,96571.31
2022-12-12T02:40:42.063Z,96577.19
2022-12-12T02:45:23.174Z,96580.81
2022-12-12T02:49:55.101Z,96581.25
2022-12-12T02:54:19.440Z,96574.81
2022-12-12T02:58:38.953Z,96580.81
2022-12-12T03:03:37.346Z,96577.72
2022-12-12T03:08:22.445Z,96577.19
2022-12-12T03:13:10.558Z,96581.31
2022-12-12T03:17:42.375Z,96581.72
2022-12-12T03:22:20.775Z,96576.81
2022-12-12T03:27:00.765Z,96580.28
2022-12-12T03:31:25.257Z,96584.97
2022-12-12T03:35:59.636Z,96586.31
2022-12-12T03:40:28.387Z,96587.59
2022-12-12T03:45:00.455Z,96582.66
2022-12-12T03:49:29.790Z,96590.97
2022-12-12T03:53:52.584Z,96589.44
2022-12-12T03:58:21.669Z,96596.13
2022-12-12T04:02:52.218Z,96592.16
2022-12-12T04:07:29.180Z,96586.88
2022-12-12T04:12:19.931Z,96588.72
2022-12-12T04:16:42.884Z,96581.59
2022-12-12T04:21:42.704Z,96586.94
2022-12-12T04:26:41.918Z,96576.69
2022-12-12T04:31:05.139Z,96573.69
2022-12-12T04:35:35.860Z,96577.41
2022-12-12T04:39:57.828Z,96577.19
2022-12-12T04:44:17.139Z,96581.53
2022-12-12T04:48:53.615Z,96569.03
2022-12-12T04:53:18.994Z,96572.59
2022-12-12T04:57:43.459Z,96583.13
2022-12-12T05:02:14.495Z,96577.97
2022-12-12T05:06:49.324Z,96567.81
2022-12-12T05:11:07.345Z,96569.81
2022-12-12T05:15:25.195Z,96575.66
2022-12-12T05:19:42.092Z,96575.06
2022-12-12T05:23:59.165Z,96580.38
2022-12-12T05:28:16.000Z,96575.06
2022-12-12T05:32:33.083Z,96578.72
2022-12-12T05:36:50.048Z,96574.19
2022-12-12T05:41:07.381Z,96589.78
2022-12-12T05:45:24.488Z,96581.41
2022-12-12T05:49:41.339Z,96578.13
2022-12-12T05:53:58.341Z,96597.91
2022-12-12T05:58:15.323Z,96602.56
2022-12-12T06:02:32.499Z,96602.44
2022-12-12T06:06:49.405Z,96603.72
2022-12-12T06:11:08.265Z,96604.38
2022-12-12T06:15:25.174Z,96609.38
2022-12-12T06:19:42.477Z,96610.53
2022-12-12T06:23:59.657Z,96609.38
2022-12-12T06:28:16.582Z,96626.41
2022-12-12T06:32:33.639Z,96619.91
2022-12-12T06:36:50.633Z,96624.84
2022-12-12T06:41:10.899Z,96631.00
2022-12-12T06:45:27.771Z,96630.03
2022-12-12T06:49:44.738Z,96631.03
2022-12-12T06:54:01.698Z,96632.03
2022-12-12T06:58:18.607Z,96627.28
2022-12-12T07:02:35.968Z,96634.00
2022-12-12T07:06:53.131Z,96636.94
2022-12-12T07:11:23.714Z,96639.28
2022-12-12T07:15:59.308Z,96644.28
2022-12-12T07:20:16.273Z,96650.56
2022-12-12T07:24:33.361Z,96652.13
2022-12-12T07:28:51.709Z,96644.66
2022-12-12T07:33:09.437Z,96650.00
2022-12-12T07:37:26.666Z,96653.38
2022-12-12T07:41:43.733Z,96650.81
2022-12-12T07:46:00.683Z,96649.56
2022-12-12T07:50:17.994Z,96647.22
2022-12-12T07:54:34.833Z,96647.06
2022-12-12T07:58:53.851Z,96650.03
2022-12-12T08:03:10.652Z,96659.06
2022-12-12T08:07:27.700Z,96659.31
2022-12-12T08:11:46.645Z,96662.25
2022-12-12T08:16:06.226Z,96657.28
2022-12-12T08:20:23.154Z,96661.81
2022-12-12T08:24:40.469Z,96658.41
2022-12-12T08:28:58.760Z,96654.25
2022-12-12T08:33:16.092Z,96665.47
2022-12-12T08:37:32.989Z,96666.56
2022-12-12T08:41:50.882Z,96666.06
2022-12-12T08:46:16.823Z,96661.16
2022-12-12T08:50:35.245Z,96663.72
2022-12-12T08:54:52.180Z,96667.88
2022-12-12T08:59:10.536Z,96663.56
2022-12-12T09:03:29.536Z,96671.41
2022-12-12T09:07:46.707Z,96667.69
2022-12-12T09:12:03.924Z,96659.34
2022-12-12T09:16:22.301Z,96662.94
2022-12-12T09:20:39.544Z,96665.88
2022-12-12T09:24:56.489Z,96667.06
2022-12-12T09:29:13.610Z,96668.06
2022-12-12T09:33:30.755Z,96671.41
2022-12-12T09:37:47.581Z,96667.03
2022-12-12T09:42:32.722Z,96659.50
2022-12-12T09:47:01.151Z,96673.63
2022-12-12T09:51:18.134Z,96673.63
2022-12-12T09:55:45.054Z,96655.84
2022-12-12T10:00:09.735Z,96665.50
2022-12-12T10:04:40.381Z,96666.84
2022-12-12T10:09:42.048Z,96667.78
2022-12-12T10:14:02.685Z,96666.28
2022-12-12T10:18:39.332Z,96667.28
2022-12-12T10:23:28.987Z,96662.16
2022-12-12T10:27:46.299Z,96657.69
2022-12-12T10:32:29.064Z,96653.09
2022-12-12T10:37:17.633Z,96658.31
2022-12-12T10:41:51.355Z,96654.13
2022-12-12T10:46:49.267Z,96653.69
2022-12-12T10:51:12.096Z,96649.16
2022-12-12T10:55:50.161Z,96642.97
2022-12-12T11:00:32.659Z,96647.81
2022-12-12T11:04:49.773Z,96645.19
2022-12-12T11:09:10.011Z,96651.97
2022-12-12T11:13:27.233Z,96648.91
2022-12-12T11:17:44.793Z,96649.06
2022-12-12T11:22:04.445Z,96649.59
2022-12-12T11:26:22.782Z,96647.91
2022-12-12T11:30:43.916Z,96650.91
2022-12-12T11:35:03.730Z,96649.91
2022-12-12T11:39:36.411Z,96649.13
2022-12-12T11:43:58.407Z,96651.38
2022-12-12T11:48:33.655Z,96649.34
2022-12-12T11:53:04.151Z,96655.63
2022-12-12T11:58:04.474Z,96662.53
2022-12-12T12:02:49.099Z,96659.28
2022-12-12T12:07:24.247Z,96667.41
2022-12-12T12:12:11.839Z,96663.34
2022-12-12T12:16:47.399Z,96677.28
2022-12-12T12:21:27.566Z,96682.03
2022-12-12T12:26:18.815Z,96675.81
2022-12-12T12:30:52.857Z,96682.22
2022-12-12T12:35:31.068Z,96678.00
2022-12-12T12:40:12.067Z,96675.13
2022-12-12T12:44:51.229Z,96684.63
2022-12-12T12:49:31.678Z,96681.53
2022-12-12T12:54:15.830Z,96674.88
2022-12-12T12:58:42.641Z,96689.00
2022-12-12T13:03:19.985Z,96689.03
2022-12-12T13:07:48.571Z,96685.88
2022-12-12T13:12:14.902Z,96686.34
2022-12-12T13:16:33.333Z,96698.00
2022-12-12T13:21:39.450Z,96701.75
2022-12-12T13:26:27.364Z,96704.75
2022-12-12T13:31:13.035Z,96716.03
2022-12-12T13:35:51.189Z,96713.06
2022-12-12T13:40:27.252Z,96713.91
2022-12-12T13:44:47.857Z,96717.06
2022-12-12T13:49:07.669Z,96721.00
2022-12-12T13:53:24.703Z,96730.53
2022-12-12T13:58:05.844Z,96734.88
2022-12-12T14:02:41.690Z,96734.28
2022-12-12T14:07:02.162Z,96740.63
2022-12-12T14:11:37.632Z,96749.91
2022-12-12T14:15:57.751Z,96747.78
2022-12-12T14:20:31.640Z,96753.28
2022-12-12T14:25:11.938Z,96758.22
2022-12-12T14:29:34.403Z,96758.22
2022-12-12T14:39:27.746Z,96769.50
2022-12-12T14:44:34.995Z,96762.22
2022-12-12T14:48:37.625Z,96774.09
2022-12-12T14:52:55.031Z,96773.69
2022-12-12T14:57:23.298Z,96778.63
2022-12-12T15:01:53.553Z,96764.53
2022-12-12T15:06:40.969Z,96778.13
2022-12-12T15:11:00.677Z,96779.72
2022-12-12T15:15:31.309Z,96791.59
2022-12-12T15:19:53.435Z,96796.00
2022-12-12T15:24:23.557Z,96802.13
2022-12-12T15:28:45.544Z,96804.47
2022-12-12T15:33:05.984Z,96802.53
2022-12-12T15:37:28.790Z,96804.13
2022-12-12T15:41:46.464Z,96803.31
2022-12-12T15:46:14.525Z,96803.75
2022-12-12T15:50:43.796Z,96813.41
2022-12-12T15:55:04.116Z,96813.25
2022-12-12T15:59:30.242Z,96811.25
2022-12-12T16:04:10.020Z,96818.38
2022-12-12T16:08:44.126Z,96825.47
2022-12-12T16:13:34.448Z,96836.94
2022-12-12T16:17:59.451Z,96835.75
2022-12-12T16:22:47.535Z,96836.56
2022-12-12T16:27:07.774Z,96834.38
2022-12-12T16:31:24.857Z,96832.00
2022-12-12T16:35:41.702Z,96840.31
2022-12-12T16:39:58.891Z,96842.28
2022-12-12T16:44:15.716Z,96850.00
2022-12-12T16:48:37.070Z,96859.25
2022-12-12T16:52:55.345Z,96852.78
2022-12-12T16:57:12.823Z,96854.03
2022-12-12T17:01:33.329Z,96848.03
2022-12-12T17:05:53.425Z,96855.06
2022-12-12T17:10:11.310Z,96852.91
2022-12-12T17:14:28.580Z,96860.16
2022-12-12T17:18:45.491Z,96867.00
2022-12-12T17:27:33.381Z,96868.75
2022-12-12T17:31:50.871Z,96872.69
2022-12-12T17:36:08.383Z,96878.25
2022-12-12T17:40:26.403Z,96888.19
2022-12-12T17:44:43.432Z,96886.72
2022-12-12T17:49:02.106Z,96887.88
2022-12-12T17:53:19.059Z,96894.97
2022-12-12T17:57:36.475Z,96893.66
2022-12-12T18:01:54.172Z,96903.16
2022-12-12T18:06:12.129Z,96909.25
2022-12-12T18:10:29.165Z,96905.72
2022-12-12T18:14:46.493Z,96920.91
2022-12-12T18:19:03.917Z,96922.94
2022-12-12T18:23:20.778Z,96930.94
2022-12-12T18:27:38.565Z,96923.84
2022-12-12T18:31:55.517Z,96931.00
2022-12-12T18:36:19.254Z,96935.88
2022-12-12T18:40:39.443Z,96942.56
2022-12-12T18:44:56.617Z,96942.59
2022-12-12T18:49:18.411Z,96954.50
2022-12-12T18:53:38.034Z,96962.00
2022-12-12T18:57:54.964Z,96961.81
2022-12-12T19:02:14.079Z,96960.25
2022-12-12T19:06:36.342Z,96978.63
2022-12-12T19:10:53.374Z,96981.97
2022-12-12T19:15:18.612Z,96981.56
2022-12-12T19:19:36.025Z,96996.97
2022-12-12T19:23:58.773Z,97005.88
2022-12-12T19:28:15.861Z,97003.31
2022-12-12T19:32:33.284Z,97006.66
2022-12-12T19:36:50.341Z,97021.69
2022-12-12T19:41:08.954Z,97028.03
2022-12-12T19:45:26.100Z,97028.44
2022-12-12T19:49:43.072Z,97038.88
2022-12-12T19:54:00.845Z,97038.31
2022-12-12T19:58:17.933Z,97041.25
2022-12-12T20:02:36.052Z,97044.03
2022-12-12T20:06:53.030Z,97051.31
2022-12-12T20:11:14.615Z,97057.66
2022-12-12T20:15:31.551Z,97061.22
2022-12-12T20:19:49.768Z,97059.03
2022-12-12T20:24:07.621Z,97063.97
2022-12-12T20:28:25.046Z,97068.53
2022-12-12T20:32:42.105Z,97078.00
2022-12-12T20:36:59.188Z,97077.41
2022-12-12T20:41:24.032Z,97088.69
2022-12-12T20:45:40.881Z,97081.34
2022-12-12T20:49:58.175Z,97093.63
2022-12-12T20:54:18.590Z,97082.91
2022-12-12T20:58:37.664Z,97087.94
2022-12-12T21:02:54.772Z,97090.56
2022-12-12T21:07:11.705Z,97097.47
2022-12-12T21:11:29.792Z,97090.72
2022-12-12T21:15:46.642Z,97101.03
2022-12-12T21:20:06.812Z,97105.34
2022-12-12T21:24:23.945Z,97114.84
2022-12-12T21:28:41.257Z,97113.06
2022-12-12T21:32:58.140Z,97123.91
2022-12-12T21:37:15.352Z,97130.06
2022-12-12T21:41:32.189Z,97133.81
2022-12-12T21:45:49.276Z,97135.00
2022-12-12T21:50:06.912Z,97144.34
2022-12-12T21:54:24.525Z,97145.94
2022-12-12T21:58:43.566Z,97153.94
2022-12-12T22:03:00.709Z,97150.34
2022-12-12T22:07:19.400Z,97155.94
2022-12-12T22:11:42.077Z,97166.22
2022-12-12T22:16:10.945Z,97160.06
2022-12-12T22:20:28.121Z,97165.44
2022-12-12T22:24:44.969Z,97175.31
2022-12-12T22:29:07.064Z,97168.00
2022-12-12T22:33:23.920Z,97173.75
2022-12-12T22:37:41.030Z,97185.63
2022-12-12T22:41:58.284Z,97181.91
2022-12-12T22:46:15.460Z,97189.81
2022-12-12T22:50:32.501Z,97194.34
2022-12-12T22:54:50.806Z,97209.59
2022-12-12T22:59:10.227Z,97193.69
2022-12-12T23:03:27.321Z,97202.66
2022-12-12T23:07:44.272Z,97205.63
2022-12-12T23:12:01.321Z,97221.25
2022-12-12T23:16:21.461Z,97219.09
2022-12-12T23:20:38.704Z,97223.59
2022-12-12T23:24:55.534Z,97223.19
2022-12-12T23:29:17.357Z,97226.34
2022-12-12T23:33:34.203Z,97238.72
2022-12-12T23:37:51.352Z,97241.28
2022-12-12T23:42:08.172Z,97239.09
2022-12-12T23:46:29.009Z,97233.84
2022-12-12T23:50:48.070Z,97237.56
2022-12-12T23:55:05.869Z,97243.06
2022-12-12T23:59:22.901Z,97249.38
